Ora Direzione Vento Velocita' Vento Media Vento Raffica Max. Temperatura Wind Chill Pioggia Pressione
20:44:55.0347 °(NNW)0.0 Kts0.0 Kts8.3 Kts20.7 °C25.98 °C0.0 mm1017.8 Hpa
20:24:36.0339 °(NNW)0.6 Kts1.16 Kts8.3 Kts21.6 °C23.71 °C0.0 mm1018.0 Hpa
20:04:17.0322 °(NW)0.7 Kts0.93 Kts8.3 Kts22.2 °C24.25 °C0.0 mm1017.8 Hpa
19:44:03.0349 °(N)2.0 Kts1.63 Kts8.3 Kts23.0 °C24.67 °C0.0 mm1019.0 Hpa
19:24:51.0323 °(NW)2.5 Kts2.13 Kts8.3 Kts23.2 °C24.79 °C0.0 mm1018.3 Hpa
19:04:29.0301 °(WNW)2.6 Kts2.23 Kts8.3 Kts23.2 °C24.76 °C0.0 mm1017.2 Hpa
18:44:08.0296 °(WNW)1.8 Kts1.93 Kts8.3 Kts23.6 °C25.37 °C0.0 mm1018.9 Hpa
18:24:49.0311 °(NW)2.0 Kts1.16 Kts8.3 Kts24.2 °C25.99 °C0.0 mm1018.3 Hpa
18:04:30.0316 °(NW)1.9 Kts2.8 Kts8.3 Kts24.1 °C25.88 °C0.0 mm1017.8 Hpa
17:44:11.0290 °(WNW)2.0 Kts2.96 Kts8.3 Kts24.2 °C25.99 °C0.0 mm1020.4 Hpa
17:23:51.0294 °(WNW)3.5 Kts3.13 Kts8.3 Kts24.5 °C26.14 °C0.0 mm1019.9 Hpa
17:04:37.0278 °(W)2.7 Kts0.9 Kts8.3 Kts26.0 °C27.92 °C0.0 mm1020.7 Hpa
16:44:14.0251 °(WSW)2.4 Kts2.26 Kts8.3 Kts25.7 °C27.62 °C0.0 mm1020.3 Hpa
16:22:45.0269 °(W)2.5 Kts2.93 Kts8.3 Kts25.7 °C27.6 °C0.0 mm1019.5 Hpa
16:04:37.0241 °(WSW)3.5 Kts2.86 Kts8.3 Kts25.2 °C26.95 °C0.0 mm1019.0 Hpa
15:44:22.0216 °(SW)3.7 Kts4.03 Kts8.3 Kts25.3 °C27.05 °C0.0 mm1018.6 Hpa
15:24:06.0231 °(SW)4.2 Kts3.96 Kts8.3 Kts25.5 °C27.24 °C0.0 mm1020.0 Hpa
15:04:53.0241 °(WSW)3.8 Kts4.06 Kts8.3 Kts25.7 °C27.49 °C0.0 mm1018.2 Hpa
14:44:52.0213 °(SSW)6.8 Kts5.96 Kts8.3 Kts24.8 °C26.24 °C0.0 mm1020.6 Hpa
14:23:50.0184 °(S)4.2 Kts5.46 Kts8.3 Kts24.6 °C26.2 °C0.0 mm1019.6 Hpa